Time;durP1;ratioP1;P1;durP2;ratioP2;P2;SDS_P1;SDS_P2;PMS_P1;PMS_P2;Temp;Humidity;BMP_temperature;BMP_pressure;BME280_temperature;BME280_humidity;BME280_pressure;Samples;Min_cycle;Max_cycle;Signal;HPM_P1;HPM_P2
2023/12/12 00:02:35;;;;;;;4.30;1.00;;;;;;;8.16;100.00;100066.72;5125952;27;20362;-67
2023/12/12 00:05:00;;;;;;;3.70;0.90;;;;;;;8.16;100.00;100066.72;5128898;27;20444;-67
2023/12/12 00:07:25;;;;;;;3.58;0.98;;;;;;;8.16;100.00;100071.09;5128628;27;20119;-66
2023/12/12 00:09:51;;;;;;;3.10;0.67;;;;;;;8.15;100.00;100071.91;5128231;27;20488;-66
2023/12/12 00:12:16;;;;;;;3.80;1.10;;;;;;;8.14;100.00;100075.41;5128728;27;20179;-67
2023/12/12 00:14:42;;;;;;;4.47;1.00;;;;;;;8.13;100.00;100074.50;5128726;27;20155;-67
2023/12/12 00:17:07;;;;;;;3.97;1.00;;;;;;;8.12;100.00;100075.34;5128714;28;20119;-68
2023/12/12 00:19:32;;;;;;;5.75;0.82;;;;;;;8.08;100.00;100086.56;5128168;27;20031;-67
2023/12/12 00:21:58;;;;;;;2.93;0.70;;;;;;;8.09;100.00;100082.22;5128376;27;20035;-66
2023/12/12 00:24:23;;;;;;;8.37;1.20;;;;;;;8.10;100.00;100082.25;5128267;28;20122;-67
2023/12/12 00:26:48;;;;;;;6.57;1.00;;;;;;;8.08;100.00;100086.56;5128309;27;20114;-67
2023/12/12 00:29:14;;;;;;;4.30;0.87;;;;;;;8.08;100.00;100078.69;5128043;27;20130;-67
2023/12/12 00:31:39;;;;;;;3.80;1.10;;;;;;;8.10;100.00;100082.25;5128267;27;20153;-67
2023/12/12 00:34:04;;;;;;;5.07;1.27;;;;;;;8.10;100.00;100090.16;5128433;27;20131;-66
2023/12/12 00:36:30;;;;;;;4.03;1.00;;;;;;;8.10;100.00;100094.50;5127978;27;20036;-67
2023/12/12 00:41:09;;;;;;;5.07;1.30;;;;;;;8.11;100.00;100106.81;5087943;28;20720;-67
2023/12/12 00:43:35;;;;;;;3.90;1.07;;;;;;;8.12;100.00;100100.75;5087957;28;20041;-68
2023/12/12 00:46:00;;;;;;;6.47;1.40;;;;;;;8.13;100.00;100111.34;5088002;28;20040;-67
2023/12/12 00:48:25;;;;;;;5.73;1.30;;;;;;;8.13;100.00;100124.47;5087150;28;20535;-67
2023/12/12 00:50:51;;;;;;;5.00;1.43;;;;;;;8.15;100.00;100120.16;5087498;28;20120;-67
2023/12/12 00:53:17;;;;;;;4.57;1.33;;;;;;;8.17;100.00;100118.50;5087591;28;20446;-66
2023/12/12 00:55:43;;;;;;;4.45;1.40;;;;;;;8.19;100.00;100127.34;5087923;28;20541;-65
2023/12/12 00:58:08;;;;;;;5.43;2.00;;;;;;;8.19;100.00;100129.97;5087793;28;20078;-68
2023/12/12 01:02:52;;;;;;;5.55;1.52;;;;;;;8.25;100.00;100129.31;5087820;28;20414;-66
2023/12/12 01:05:17;;;;;;;5.53;2.07;;;;;;;8.24;100.00;100146.84;5087719;28;20032;-68
2023/12/12 01:07:43;;;;;;;5.70;1.67;;;;;;;8.27;100.00;100147.81;5087904;28;20155;-67
2023/12/12 01:10:08;;;;;;;7.60;1.77;;;;;;;8.28;100.00;100157.50;5087298;28;20044;-67
2023/12/12 01:12:34;;;;;;;6.47;1.77;;;;;;;8.29;100.00;100149.66;5087725;28;20062;-66
2023/12/12 01:14:59;;;;;;;8.25;2.30;;;;;;;8.29;100.00;100154.03;5087949;28;20041;-67
2023/12/12 01:17:26;;;;;;;5.17;1.70;;;;;;;8.27;100.00;100159.22;5087346;28;20399;-65
2023/12/12 01:19:51;;;;;;;7.10;2.00;;;;;;;8.28;100.00;100158.41;5086901;28;20085;-65
2023/12/12 01:22:17;;;;;;;5.17;1.80;;;;;;;8.28;100.00;100162.75;5086779;28;20583;-66
2023/12/12 01:24:42;;;;;;;6.60;2.00;;;;;;;8.28;100.00;100173.28;5087135;28;20119;-65
2023/12/12 01:27:08;;;;;;;5.93;2.13;;;;;;;8.27;100.00;100168.84;5087407;28;20069;-65
2023/12/12 01:29:34;;;;;;;5.97;2.05;;;;;;;8.27;100.00;100180.28;5086750;28;20037;-66
2023/12/12 01:32:00;;;;;;;5.95;2.00;;;;;;;8.27;100.00;100182.00;5085759;28;20178;-66
2023/12/12 01:34:26;;;;;;;6.53;2.30;;;;;;;8.25;100.00;100180.19;5087144;28;20051;-65
2023/12/12 01:36:51;;;;;;;5.38;1.88;;;;;;;8.24;100.00;100188.91;5086989;28;20430;-65
2023/12/12 01:39:17;;;;;;;5.83;1.70;;;;;;;8.24;100.00;100193.28;5086338;28;20037;-66
2023/12/12 01:41:46;;;;;;;5.70;1.90;;;;;;;8.23;100.00;100191.50;5083737;28;20170;-66
2023/12/12 01:44:11;;;;;;;6.88;1.88;;;;;;;8.23;100.00;100192.41;5087047;28;20116;-66
2023/12/12 01:46:37;;;;;;;6.07;1.73;;;;;;;8.22;100.00;100193.25;5086818;28;20057;-65
2023/12/12 01:51:18;;;;;;;5.22;1.60;;;;;;;8.22;100.00;100195.88;5108162;27;20362;-65
2023/12/12 01:53:46;;;;;;;6.53;2.13;;;;;;;8.22;100.00;100195.88;5107808;28;20028;-66
2023/12/12 01:58:25;;;;;;;5.68;1.45;;;;;;;8.23;100.00;100192.41;5087359;27;20369;-65
2023/12/12 02:00:51;;;;;;;5.07;1.65;;;;;;;8.24;100.00;100188.03;5102615;28;20078;-65
2023/12/12 02:03:17;;;;;;;5.45;1.20;;;;;;;8.26;100.00;100189.00;5087667;28;20039;-65
2023/12/12 02:05:43;;;;;;;3.93;0.90;;;;;;;8.26;100.00;100189.00;5087280;28;20033;-66
2023/12/12 02:08:09;;;;;;;4.07;0.88;;;;;;;8.26;100.00;100191.63;5087446;28;20036;-65
2023/12/12 02:10:34;;;;;;;4.50;0.70;;;;;;;8.30;100.00;100190.03;5086740;28;20502;-65
2023/12/12 02:13:00;;;;;;;3.10;0.60;;;;;;;8.28;100.00;100195.22;5087629;28;20040;-66
2023/12/12 02:15:26;;;;;;;3.57;0.60;;;;;;;8.29;100.00;100197.00;5087111;28;20294;-65
2023/12/12 02:17:51;;;;;;;5.38;0.82;;;;;;;8.29;100.00;100197.00;5087047;28;20060;-65
2023/12/12 02:20:17;;;;;;;4.30;0.80;;;;;;;8.28;100.00;100195.22;5086643;28;20032;-65
2023/12/12 02:22:42;;;;;;;7.53;0.90;;;;;;;8.25;100.00;100196.00;5086923;28;20513;-65
2023/12/12 02:25:08;;;;;;;5.63;0.60;;;;;;;8.24;100.00;100198.53;5087289;28;20028;-65
2023/12/12 02:27:34;;;;;;;4.90;0.93;;;;;;;8.23;100.00;100196.78;5085998;28;20469;-66
2023/12/12 02:29:59;;;;;;;3.25;0.75;;;;;;;8.24;100.00;100199.44;5079620;28;20032;-65
2023/12/12 02:32:28;;;;;;;3.83;0.70;;;;;;;8.22;100.00;100203.75;5078737;28;20032;-65
2023/12/12 02:34:53;;;;;;;4.72;1.58;;;;;;;8.21;100.00;100199.31;5068997;28;20120;-66
2023/12/12 02:37:19;;;;;;;3.87;0.87;;;;;;;8.19;100.00;100200.97;5066815;28;20041;-65
2023/12/12 02:39:44;;;;;;;5.67;0.97;;;;;;;8.19;100.00;100206.25;5066468;28;20049;-66
2023/12/12 02:42:10;;;;;;;4.20;0.80;;;;;;;8.18;100.00;100199.22;5066698;28;20144;-66
2023/12/12 02:44:35;;;;;;;4.67;0.80;;;;;;;8.19;100.00;100211.50;5066314;28;20290;-65
2023/12/12 02:47:00;;;;;;;6.77;0.97;;;;;;;8.20;100.00;100208.03;5066517;28;20112;-66
2023/12/12 02:49:26;;;;;;;4.27;0.63;;;;;;;8.18;100.00;100204.47;5065550;28;20044;-67
2023/12/12 02:51:51;;;;;;;4.03;0.98;;;;;;;8.18;100.00;100208.84;5066414;28;20510;-66
2023/12/12 02:54:17;;;;;;;3.80;0.80;;;;;;;8.17;100.00;100209.66;5066074;28;20449;-67
2023/12/12 02:56:42;;;;;;;4.87;0.67;;;;;;;8.15;100.00;100209.59;5065926;28;20033;-67
2023/12/12 02:59:08;;;;;;;3.63;0.70;;;;;;;8.14;100.00;100210.41;5065803;28;20224;-67
2023/12/12 03:01:33;;;;;;;5.57;0.93;;;;;;;8.11;100.00;100218.19;5083942;28;20123;-67
2023/12/12 03:03:58;;;;;;;3.53;0.90;;;;;;;8.08;100.00;100219.81;5106858;28;20036;-66
2023/12/12 03:06:24;;;;;;;3.97;0.83;;;;;;;8.05;100.00;100217.94;5106334;28;20032;-67
2023/12/12 03:08:49;;;;;;;4.60;0.70;;;;;;;8.06;100.00;100221.47;5097608;28;20126;-67
2023/12/12 03:11:14;;;;;;;3.50;0.70;;;;;;;8.05;100.00;100217.03;5092815;28;20123;-67
2023/12/12 03:13:40;;;;;;;3.00;0.53;;;;;;;8.03;100.00;100214.34;5093030;28;20036;-67
2023/12/12 03:16:05;;;;;;;3.10;0.60;;;;;;;8.01;100.00;100213.38;5092806;28;20411;-67
2023/12/12 03:18:33;;;;;;;3.03;0.70;;;;;;;8.02;100.00;100222.16;5092264;28;20050;-66
2023/12/12 03:23:10;;;;;;;4.63;0.80;;;;;;;7.98;100.00;100210.63;5107235;27;20421;-67
2023/12/12 03:25:36;;;;;;;4.07;0.80;;;;;;;7.98;100.00;100209.72;5107841;28;20369;-67
2023/12/12 03:28:02;;;;;;;4.33;0.87;;;;;;;7.96;100.00;100209.66;5107847;28;20244;-67
2023/12/12 03:32:58;;;;;;;5.10;1.30;;;;;;;7.98;100.00;100222.88;5004317;28;20368;-64
2023/12/12 03:35:24;;;;;;;5.15;0.90;;;;;;;8.00;100.00;100223.81;5004020;28;20046;-67
2023/12/12 03:37:49;;;;;;;7.13;1.07;;;;;;;7.97;100.00;100223.69;5004307;28;20591;-67
2023/12/12 03:40:15;;;;;;;8.03;1.73;;;;;;;7.96;100.00;100225.44;5003995;28;20053;-67
2023/12/12 03:42:40;;;;;;;5.70;1.10;;;;;;;7.98;100.00;100226.41;5004302;28;20486;-67
2023/12/12 03:45:06;;;;;;;6.10;0.87;;;;;;;7.97;100.00;100227.22;5004099;28;20293;-65
2023/12/12 03:47:31;;;;;;;7.50;1.30;;;;;;;7.99;100.00;100224.69;5004544;28;20045;-66
2023/12/12 03:49:57;;;;;;;4.95;1.30;;;;;;;7.99;100.00;100225.53;5003848;28;20045;-65
2023/12/12 03:52:22;;;;;;;5.07;1.50;;;;;;;7.98;100.00;100230.75;5004576;28;20043;-66
2023/12/12 03:54:48;;;;;;;5.33;1.13;;;;;;;7.98;100.00;100228.13;4995802;28;20030;-65
2023/12/12 03:57:13;;;;;;;4.27;1.30;;;;;;;7.97;100.00;100229.88;4984900;28;20057;-65
2023/12/12 03:59:39;;;;;;;5.65;1.33;;;;;;;7.96;100.00;100235.03;4999816;28;20052;-65
2023/12/12 04:02:04;;;;;;;6.77;1.30;;;;;;;7.96;100.00;100240.31;5019493;28;20042;-66
2023/12/12 04:04:30;;;;;;;7.30;1.53;;;;;;;7.92;100.00;100225.22;5004100;28;20040;-66
2023/12/12 04:06:55;;;;;;;5.67;1.40;;;;;;;7.93;100.00;100233.19;5002842;28;20292;-66
2023/12/12 04:09:20;;;;;;;9.63;1.50;;;;;;;7.91;100.00;100240.09;5001698;28;20129;-66
2023/12/12 04:11:46;;;;;;;7.47;1.37;;;;;;;7.90;100.00;100233.03;5003695;28;20126;-66
2023/12/12 04:14:11;;;;;;;5.33;1.20;;;;;;;7.88;100.00;100232.09;5001100;28;20129;-66
2023/12/12 04:16:37;;;;;;;7.17;1.30;;;;;;;7.85;100.00;100225.78;4984341;28;20031;-65
2023/12/12 04:19:02;;;;;;;8.50;1.13;;;;;;;7.84;100.00;100226.66;4983921;28;20316;-66
2023/12/12 04:21:28;;;;;;;4.47;1.00;;;;;;;7.84;100.00;100232.81;4984201;28;20126;-66
2023/12/12 04:23:54;;;;;;;7.07;1.30;;;;;;;7.88;100.00;100241.72;4983280;28;20085;-66
2023/12/12 04:26:20;;;;;;;6.13;1.37;;;;;;;7.86;100.00;100239.00;4984396;28;20538;-65
2023/12/12 04:31:16;;;;;;;6.10;1.20;;;;;;;7.86;100.00;100239.00;5067946;28;20930;-65
2023/12/12 04:33:42;;;;;;;9.48;1.25;;;;;;;7.87;100.00;100240.81;5067473;28;20067;-65
2023/12/12 04:36:08;;;;;;;7.00;1.47;;;;;;;7.86;100.00;100241.63;5067317;28;20048;-67
2023/12/12 04:38:33;;;;;;;9.73;1.45;;;;;;;7.86;100.00;100239.00;5066518;28;20040;-67
2023/12/12 04:41:03;;;;;;;6.47;1.30;;;;;;;7.85;100.00;100241.56;5066969;28;20056;-67
2023/12/12 04:43:29;;;;;;;11.25;1.88;;;;;;;7.84;100.00;100243.31;5067548;28;20140;-68
2023/12/12 04:45:54;;;;;;;5.60;1.05;;;;;;;7.85;100.00;100242.47;5067373;28;20037;-67
2023/12/12 04:48:19;;;;;;;3.83;0.97;;;;;;;7.87;100.00;100250.44;5066938;28;20040;-65
2023/12/12 04:50:45;;;;;;;8.73;1.27;;;;;;;7.87;100.00;100247.78;5066451;28;20124;-64
2023/12/12 04:53:10;;;;;;;9.53;1.33;;;;;;;7.86;100.00;100249.53;5066336;28;20120;-65
2023/12/12 04:55:35;;;;;;;10.93;1.53;;;;;;;7.86;100.00;100244.25;5064891;28;20029;-66
2023/12/12 04:58:01;;;;;;;3.60;0.80;;;;;;;7.85;100.00;100241.56;5066989;28;20165;-65
2023/12/12 05:00:27;;;;;;;7.87;1.30;;;;;;;7.87;100.00;100248.69;5080718;28;20290;-65
2023/12/12 05:02:52;;;;;;;7.57;1.50;;;;;;;7.86;100.00;100246.91;5066923;28;20077;-65
2023/12/12 05:05:18;;;;;;;6.03;1.53;;;;;;;7.85;100.00;100249.44;5066753;28;20085;-65
2023/12/12 05:07:43;;;;;;;5.53;1.20;;;;;;;7.84;100.00;100245.06;5067018;28;20291;-66
2023/12/12 05:10:09;;;;;;;5.47;1.37;;;;;;;7.84;100.00;100248.59;5066001;28;20166;-66
2023/12/12 05:12:34;;;;;;;4.37;1.10;;;;;;;7.84;100.00;100252.94;5066771;28;20302;-66
2023/12/12 05:15:00;;;;;;;3.80;1.10;;;;;;;7.81;100.00;100241.44;5066659;28;20061;-65
2023/12/12 05:17:26;;;;;;;7.57;1.30;;;;;;;7.79;100.00;100245.72;5066174;28;20085;-66
2023/12/12 05:19:51;;;;;;;6.47;1.13;;;;;;;7.81;100.00;100253.69;5065876;28;20610;-66
2023/12/12 05:22:17;;;;;;;5.70;1.23;;;;;;;7.79;100.00;100258.00;5066715;28;20505;-66
2023/12/12 05:24:42;;;;;;;6.50;1.57;;;;;;;7.78;100.00;100249.22;5065647;28;20291;-66
2023/12/12 05:27:08;;;;;;;4.80;1.10;;;;;;;7.77;100.00;100252.66;5066156;28;20033;-67
2023/12/12 05:29:33;;;;;;;6.67;1.13;;;;;;;7.80;100.00;100259.75;5065633;28;20029;-67
2023/12/12 05:31:59;;;;;;;8.38;1.30;;;;;;;7.79;100.00;100260.63;5066481;28;20101;-67
2023/12/12 05:34:24;;;;;;;7.17;1.20;;;;;;;7.76;100.00;100252.56;5065716;28;20047;-66
2023/12/12 05:36:49;;;;;;;7.57;1.50;;;;;;;7.75;100.00;100262.19;5066330;28;20123;-66
2023/12/12 05:39:15;;;;;;;6.53;1.20;;;;;;;7.74;100.00;100267.41;5065273;28;20036;-66
2023/12/12 05:41:40;;;;;;;5.00;1.03;;;;;;;7.71;100.00;100268.16;5073433;28;20112;-66
2023/12/12 05:44:07;;;;;;;4.20;1.23;;;;;;;7.72;100.00;100275.22;5053370;28;20041;-66
2023/12/12 05:46:33;;;;;;;6.97;1.27;;;;;;;7.73;100.00;100276.13;5053045;28;20515;-67
2023/12/12 05:48:59;;;;;;;9.53;1.30;;;;;;;7.71;100.00;100278.66;5052146;28;20049;-67
2023/12/12 05:51:25;;;;;;;6.47;1.30;;;;;;;7.72;100.00;100277.84;5052934;28;20072;-65
2023/12/12 05:53:51;;;;;;;6.93;1.25;;;;;;;7.72;100.00;100284.81;5052886;28;20501;-66
2023/12/12 05:56:17;;;;;;;6.73;1.43;;;;;;;7.69;100.00;100289.97;5052772;28;20048;-66
2023/12/12 05:58:43;;;;;;;6.60;1.55;;;;;;;7.67;100.00;100287.25;5052268;28;20044;-67
2023/12/12 06:01:08;;;;;;;4.47;1.40;;;;;;;7.65;100.00;100288.91;5066987;28;20055;-67
2023/12/12 06:03:34;;;;;;;8.15;1.48;;;;;;;7.64;100.00;100286.22;5052288;28;20370;-67
2023/12/12 06:06:02;;;;;;;5.50;1.33;;;;;;;7.64;100.00;100284.50;5052693;28;20493;-66
2023/12/12 06:08:27;;;;;;;4.30;1.42;;;;;;;7.63;100.00;100292.31;5052080;28;20033;-66
2023/12/12 06:10:52;;;;;;;7.23;1.73;;;;;;;7.62;100.00;100299.28;5051949;28;20059;-66
2023/12/12 06:13:18;;;;;;;6.13;1.47;;;;;;;7.60;100.00;100300.03;5052666;28;20158;-65
2023/12/12 06:15:43;;;;;;;8.63;1.80;;;;;;;7.60;100.00;100297.41;5052445;28;20036;-66
2023/12/12 06:18:09;;;;;;;6.93;1.80;;;;;;;7.58;100.00;100301.72;5052150;28;20041;-66
2023/12/12 06:20:35;;;;;;;8.17;1.57;;;;;;;7.59;100.00;100307.03;5051587;28;20048;-66
2023/12/12 06:23:00;;;;;;;4.18;1.30;;;;;;;7.61;100.00;100309.72;5051007;28;20061;-66
2023/12/12 06:25:26;;;;;;;9.87;1.80;;;;;;;7.59;100.00;100308.75;5051857;28;20037;-66
2023/12/12 06:27:52;;;;;;;10.07;1.70;;;;;;;7.61;100.00;100314.97;5052378;28;20041;-66
2023/12/12 06:30:17;;;;;;;6.55;1.58;;;;;;;7.58;100.00;100318.38;5051474;28;20036;-66
2023/12/12 06:32:43;;;;;;;6.50;1.70;;;;;;;7.60;100.00;100326.31;5051757;28;20167;-66
2023/12/12 06:35:08;;;;;;;7.45;1.80;;;;;;;7.59;100.00;100325.44;5052110;28;20044;-66
2023/12/12 06:37:33;;;;;;;6.63;2.00;;;;;;;7.60;100.00;100326.31;5051730;28;20140;-66
2023/12/12 06:42:13;;;;;;;7.60;1.95;;;;;;;7.60;100.00;100329.84;5087669;28;20410;-65
2023/12/12 06:44:38;;;;;;;9.93;2.00;;;;;;;7.60;100.00;100329.84;5062107;28;20030;-67
2023/12/12 06:47:04;;;;;;;9.88;1.73;;;;;;;7.61;100.00;100339.53;5046958;28;20033;-67
2023/12/12 06:49:29;;;;;;;8.27;2.10;;;;;;;7.61;100.00;100336.00;5038779;28;20041;-67
2023/12/12 06:51:55;;;;;;;8.40;2.00;;;;;;;7.62;100.00;100338.72;5027768;28;20124;-67
2023/12/12 06:54:20;;;;;;;7.47;1.87;;;;;;;7.66;100.00;100337.09;5027085;28;20083;-67
2023/12/12 06:56:45;;;;;;;8.03;2.03;;;;;;;7.67;100.00;100339.81;5027325;28;20125;-67
2023/12/12 07:01:23;;;;;;;9.73;2.42;;;;;;;7.66;100.00;100337.09;5094571;27;20371;-67
2023/12/12 07:03:48;;;;;;;10.27;2.10;;;;;;;7.66;100.00;100342.38;5095251;28;20032;-68
2023/12/12 07:06:16;;;;;;;9.32;2.08;;;;;;;7.63;100.00;100340.50;5089693;28;20115;-66
2023/12/12 07:08:41;;;;;;;12.20;2.17;;;;;;;7.65;100.00;100351.06;5108067;28;20048;-66
2023/12/12 07:11:07;;;;;;;6.38;1.70;;;;;;;7.64;100.00;100344.03;5100699;28;20040;-65
2023/12/12 07:13:32;;;;;;;11.43;2.20;;;;;;;7.66;100.00;100350.25;5087468;28;20040;-65
2023/12/12 07:15:58;;;;;;;9.27;2.17;;;;;;;7.64;100.00;100358.09;5087507;28;20536;-66
2023/12/12 07:18:24;;;;;;;7.97;2.00;;;;;;;7.64;100.00;100347.56;5086780;28;20044;-66
2023/12/12 07:20:49;;;;;;;10.70;2.30;;;;;;;7.66;100.00;100350.25;5103739;28;20035;-66
2023/12/12 07:23:15;;;;;;;10.30;2.30;;;;;;;7.66;100.00;100358.13;5107442;28;20272;-68
2023/12/12 07:25:40;;;;;;;7.85;2.22;;;;;;;7.68;100.00;100346.88;5107414;28;20041;-60
2023/12/12 07:28:06;;;;;;;7.53;2.30;;;;;;;7.77;100.00;100349.03;5106971;28;20114;-62
2023/12/12 07:30:32;;;;;;;8.37;2.00;;;;;;;8.04;100.00;100352.88;5106319;28;20035;-62
2023/12/12 07:32:58;;;;;;;7.32;2.53;;;;;;;8.15;100.00;100351.63;5107226;28;20126;-62
2023/12/12 07:35:23;;;;;;;6.35;1.85;;;;;;;8.20;100.00;100347.47;5106915;28;20111;-62
2023/12/12 07:37:49;;;;;;;7.50;2.30;;;;;;;8.34;100.00;100347.22;5107375;28;20032;-62
2023/12/12 07:40:15;;;;;;;7.45;2.03;;;;;;;8.54;100.00;100352.47;5106632;28;20024;-62
2023/12/12 07:42:40;;;;;;;12.70;2.50;;;;;;;8.59;100.00;100350.94;5107217;28;20040;-62
2023/12/12 07:45:07;;;;;;;9.33;2.10;;;;;;;8.64;100.00;100359.94;5106484;28;20046;-61
2023/12/12 07:47:33;;;;;;;7.13;1.92;;;;;;;8.69;100.00;100352.22;5107067;28;20032;-62
2023/12/12 07:49:58;;;;;;;9.82;2.10;;;;;;;8.76;100.00;100349.03;5106508;28;20028;-62
2023/12/12 07:54:37;;;;;;;7.05;2.08;;;;;;;8.97;100.00;100341.13;5067175;28;20730;-62
2023/12/12 07:57:03;;;;;;;6.85;2.20;;;;;;;9.09;100.00;100344.25;5067211;28;20043;-61
2023/12/12 07:59:29;;;;;;;6.60;2.03;;;;;;;9.26;100.00;100348.47;5073419;28;20048;-61
2023/12/12 08:01:54;;;;;;;7.50;1.70;;;;;;;9.37;100.00;100351.53;5075573;28;20577;-62
2023/12/12 08:04:19;;;;;;;16.10;2.03;;;;;;;9.70;100.00;100350.19;5067009;28;20124;-62
2023/12/12 08:06:45;;;;;;;5.53;1.53;;;;;;;9.65;100.00;100359.66;5067271;28;20568;-62
2023/12/12 08:09:10;;;;;;;6.80;1.83;;;;;;;9.49;100.00;100350.25;5066844;28;20032;-62
2023/12/12 08:11:36;;;;;;;8.55;1.50;;;;;;;9.44;100.00;100351.81;5067306;28;20087;-62
2023/12/12 08:14:02;;;;;;;8.07;1.67;;;;;;;9.47;100.00;100358.94;5066919;28;20037;-61
2023/12/12 08:16:27;;;;;;;6.47;1.88;;;;;;;9.43;100.00;100357.91;5064238;28;20119;-65
2023/12/12 08:18:53;;;;;;;7.63;1.67;;;;;;;9.26;100.00;100364.28;5065435;28;20064;-65
2023/12/12 08:21:18;;;;;;;6.60;1.70;;;;;;;9.04;100.00;100364.22;5066736;28;20174;-65
2023/12/12 08:23:44;;;;;;;5.45;1.52;;;;;;;8.86;100.00;100372.28;5066857;28;20036;-66
2023/12/12 08:26:10;;;;;;;5.93;1.70;;;;;;;8.71;100.00;100376.00;5067056;28;20162;-67
2023/12/12 08:31:02;;;;;;;7.65;1.70;;;;;;;8.47;100.00;100371.50;5108396;27;20417;-66
2023/12/12 08:33:28;;;;;;;6.75;1.67;;;;;;;8.36;100.00;100378.03;5108026;28;20032;-65
2023/12/12 08:35:57;;;;;;;4.93;1.40;;;;;;;8.28;100.00;100383.75;5107992;28;20488;-69
2023/12/12 08:38:22;;;;;;;8.20;2.00;;;;;;;8.23;100.00;100379.19;5107931;28;20406;-67
2023/12/12 08:40:49;;;;;;;12.37;1.60;;;;;;;8.18;100.00;100372.81;5107414;28;20040;-69
2023/12/12 08:43:16;;;;;;;10.70;1.88;;;;;;;8.14;100.00;100375.25;5109155;28;20024;-69
2023/12/12 08:45:43;;;;;;;6.03;1.90;;;;;;;8.09;100.00;100382.91;5109033;28;20039;-66
2023/12/12 08:48:09;;;;;;;8.15;2.08;;;;;;;8.04;100.00;100384.44;5108040;28;20031;-67
2023/12/12 08:50:35;;;;;;;5.93;1.67;;;;;;;8.01;100.00;100380.78;5107548;28;20100;-67
2023/12/12 08:53:01;;;;;;;9.27;1.60;;;;;;;7.97;100.00;100371.84;5107829;28;20038;-67
2023/12/12 08:55:27;;;;;;;7.77;1.50;;;;;;;7.97;100.00;100387.63;5107652;28;20036;-67
2023/12/12 08:57:52;;;;;;;10.55;1.83;;;;;;;7.93;100.00;100390.97;5107558;28;20523;-67
2023/12/12 09:00:18;;;;;;;7.40;1.53;;;;;;;7.89;100.00;100383.78;5120729;28;20031;-67
2023/12/12 09:02:43;;;;;;;8.70;1.90;;;;;;;7.89;100.00;100385.50;5109000;27;20063;-67
2023/12/12 09:05:08;;;;;;;5.47;1.60;;;;;;;7.88;100.00;100392.47;5107532;28;20119;-67
2023/12/12 09:07:34;;;;;;;7.53;1.90;;;;;;;7.88;100.00;100389.84;5107616;28;20040;-67
2023/12/12 09:10:01;;;;;;;4.90;1.53;;;;;;;7.86;100.00;100398.47;5106959;28;20773;-67
2023/12/12 09:12:27;;;;;;;7.00;1.90;;;;;;;7.85;100.00;100400.22;5106531;28;20039;-67
2023/12/12 09:14:52;;;;;;;9.13;1.87;;;;;;;7.83;100.00;100396.63;5107422;28;20042;-67
2023/12/12 09:17:17;;;;;;;10.87;2.17;;;;;;;7.77;100.00;100391.97;5107084;28;20052;-68
2023/12/12 09:19:43;;;;;;;7.50;2.23;;;;;;;7.77;100.00;100398.97;5106367;28;20157;-67
2023/12/12 09:22:08;;;;;;;5.50;1.80;;;;;;;7.75;100.00;100400.59;5107074;28;20127;-67
2023/12/12 09:24:33;;;;;;;7.40;1.90;;;;;;;7.75;100.00;100406.78;5106990;28;20031;-67
2023/12/12 09:26:59;;;;;;;6.83;1.87;;;;;;;7.75;100.00;100392.72;5106638;28;20115;-66
2023/12/12 09:29:24;;;;;;;8.53;1.67;;;;;;;7.77;100.00;100389.34;5094025;28;20608;-67
2023/12/12 09:31:50;;;;;;;5.87;1.50;;;;;;;7.77;100.00;100391.97;5086303;28;20037;-66
2023/12/12 09:34:15;;;;;;;6.10;1.70;;;;;;;7.80;100.00;100389.47;5086409;28;20758;-67
2023/12/12 09:36:41;;;;;;;11.47;2.03;;;;;;;7.85;100.00;100386.16;5086860;28;20456;-67
2023/12/12 09:39:07;;;;;;;10.13;1.73;;;;;;;7.88;100.00;100384.59;5085960;28;20123;-67
2023/12/12 09:41:32;;;;;;;5.80;1.63;;;;;;;7.91;100.00;100397.88;5077800;28;20043;-67
2023/12/12 09:46:26;;;;;;;8.00;1.58;;;;;;;7.90;100.00;100400.41;5108060;27;20723;-68
2023/12/12 09:48:55;;;;;;;8.15;2.15;;;;;;;7.86;100.00;100396.75;5107192;28;20039;-69
2023/12/12 09:51:24;;;;;;;10.50;1.98;;;;;;;7.90;100.00;100393.44;5107369;28;20040;-68
2023/12/12 09:53:51;;;;;;;11.20;2.00;;;;;;;7.94;100.00;100391.88;5108320;28;20111;-67
2023/12/12 09:56:17;;;;;;;7.40;2.05;;;;;;;7.97;100.00;100392.00;5107773;28;20044;-68
2023/12/12 09:58:48;;;;;;;6.07;2.13;;;;;;;7.99;100.00;100395.59;5108597;28;20147;-67
2023/12/12 10:03:37;;;;;;;6.03;1.65;;;;;;;8.04;100.00;100399.34;5108247;27;20727;-68
2023/12/12 10:06:08;;;;;;;5.78;1.98;;;;;;;8.10;100.00;100396.97;5108256;28;20505;-69
2023/12/12 10:08:37;;;;;;;7.35;2.00;;;;;;;8.13;100.00;100400.66;5107976;28;20028;-69
2023/12/12 10:11:14;;;;;;;6.03;2.15;;;;;;;8.16;100.00;100395.53;5091856;28;20085;-67
2023/12/12 10:13:48;;;;;;;6.80;2.10;;;;;;;8.20;100.00;100394.81;5116215;28;20042;-66
2023/12/12 10:16:14;;;;;;;8.30;2.33;;;;;;;8.23;100.00;100397.59;5094452;28;20041;-66
2023/12/12 10:18:39;;;;;;;10.65;2.38;;;;;;;8.28;100.00;100386.38;5127764;28;20398;-67
2023/12/12 10:23:30;;;;;;;8.55;2.45;;;;;;;8.34;100.00;100384.06;5067266;28;20382;-66
2023/12/12 10:25:56;;;;;;;6.20;2.27;;;;;;;8.37;100.00;100389.44;5067239;28;20040;-65
2023/12/12 10:28:21;;;;;;;9.63;2.00;;;;;;;8.38;100.00;100383.34;5067075;28;20054;-66
2023/12/12 10:30:51;;;;;;;7.77;2.27;;;;;;;8.40;100.00;100379.03;5084795;28;20119;-66
2023/12/12 10:33:17;;;;;;;7.95;1.83;;;;;;;8.47;100.00;100371.50;5087305;28;20050;-66
2023/12/12 10:35:45;;;;;;;6.50;1.67;;;;;;;8.51;100.00;100368.16;5087486;28;20029;-65
2023/12/12 10:38:10;;;;;;;5.55;1.42;;;;;;;8.62;100.00;100376.53;5087466;28;20169;-66
2023/12/12 10:40:36;;;;;;;6.70;1.77;;;;;;;8.83;100.00;100368.63;5086627;28;20070;-67
2023/12/12 10:43:05;;;;;;;7.83;1.70;;;;;;;9.06;100.00;100358.19;5087484;28;20066;-68
2023/12/12 10:45:31;;;;;;;9.57;1.85;;;;;;;9.34;100.00;100361.94;5087294;28;20059;-66
2023/12/12 10:47:58;;;;;;;9.45;1.67;;;;;;;9.49;100.00;100357.25;5068256;28;20276;-65
2023/12/12 10:50:26;;;;;;;7.03;1.73;;;;;;;9.53;99.71;100353.91;5066460;28;20535;-66
2023/12/12 10:52:53;;;;;;;9.13;1.98;;;;;;;9.61;99.38;100357.75;5067043;28;20071;-68
2023/12/12 10:55:20;;;;;;;8.80;2.17;;;;;;;9.68;99.07;100359.75;5066517;28;20051;-66
2023/12/12 10:57:47;;;;;;;9.25;1.50;;;;;;;9.75;98.44;100348.63;5077708;28;20036;-67
2023/12/12 11:00:16;;;;;;;8.88;1.60;;;;;;;9.81;98.38;100359.41;5082757;28;20032;-66
2023/12/12 11:02:43;;;;;;;11.33;1.67;;;;;;;9.90;97.80;100353.56;5082293;28;20095;-66
2023/12/12 11:05:10;;;;;;;6.93;1.38;;;;;;;9.94;97.40;100351.09;5075503;28;20120;-66
2023/12/12 11:07:37;;;;;;;9.57;1.35;;;;;;;10.06;97.01;100349.75;5074301;28;20036;-66
2023/12/12 11:10:08;;;;;;;9.13;1.77;;;;;;;10.13;96.19;100339.47;5086208;28;20585;-66
2023/12/12 11:12:37;;;;;;;7.78;1.77;;;;;;;10.04;95.30;100339.13;5073553;28;20090;-66
2023/12/12 11:15:05;;;;;;;6.73;1.40;;;;;;;10.02;95.71;100337.28;5066640;28;20041;-66
2023/12/12 11:19:43;;;;;;;14.13;2.00;;;;;;;9.97;95.63;100340.66;5107291;27;20367;-66
2023/12/12 11:22:08;;;;;;;9.00;1.98;;;;;;;9.95;95.67;100337.06;5107388;28;20484;-66
2023/12/12 11:24:59;;;;;;;8.57;1.30;;;;;;;9.90;95.71;100330.72;5107954;28;20043;-65
2023/12/12 11:27:25;;;;;;;7.03;1.50;;;;;;;9.78;95.96;100329.34;5107921;28;20054;-64
2023/12/12 11:29:50;;;;;;;7.53;1.50;;;;;;;9.61;96.23;100318.19;5107509;28;20036;-66
2023/12/12 11:32:18;;;;;;;6.43;1.27;;;;;;;9.54;96.80;100316.16;5107868;28;20551;-67
2023/12/12 11:34:43;;;;;;;8.97;1.23;;;;;;;9.52;97.01;100321.34;5107692;28;20048;-66
2023/12/12 11:37:09;;;;;;;9.32;1.40;;;;;;;9.54;96.99;100316.16;5112423;27;20027;-65
2023/12/12 11:39:49;;;;;;;8.77;1.40;;;;;;;9.58;96.65;100317.16;5127190;27;20118;-64
2023/12/12 11:42:21;;;;;;;4.88;1.30;;;;;;;9.59;96.30;100317.22;5117069;27;20080;-65
2023/12/12 11:44:51;;;;;;;7.47;1.10;;;;;;;9.57;96.11;100307.47;5110033;27;20036;-66
2023/12/12 11:47:20;;;;;;;10.02;1.10;;;;;;;9.52;96.24;100305.53;5127653;27;20067;-62
2023/12/12 11:49:49;;;;;;;5.32;1.00;;;;;;;9.49;96.37;100299.25;5120891;27;20039;-64
2023/12/12 11:52:45;;;;;;;4.18;1.08;;;;;;;9.49;96.58;100302.81;5107341;28;20070;-67
2023/12/12 11:55:19;;;;;;;7.18;1.30;;;;;;;9.49;96.41;100299.25;5097042;28;20048;-64